createdAt,value
2022-10-16T00:02:13.607Z,78.50
2022-10-16T00:05:16.805Z,78.45
2022-10-16T00:08:22.730Z,78.23
2022-10-16T00:11:27.467Z,78.06
2022-10-16T00:14:32.372Z,78.09
2022-10-16T00:17:35.135Z,77.90
2022-10-16T00:20:38.271Z,78.38
2022-10-16T00:23:41.844Z,77.96
2022-10-16T00:26:44.781Z,78.44
2022-10-16T00:29:52.729Z,77.97
2022-10-16T00:32:55.661Z,77.72
2022-10-16T00:36:00.357Z,78.02
2022-10-16T00:39:03.426Z,78.05
2022-10-16T00:42:10.485Z,78.07
2022-10-16T00:45:15.092Z,77.37
2022-10-16T00:48:17.933Z,77.32
2022-10-16T00:51:23.761Z,77.78
2022-10-16T00:54:30.336Z,77.77
2022-10-16T00:57:33.057Z,78.23
2022-10-16T01:00:37.362Z,78.44
2022-10-16T01:03:40.346Z,78.94
2022-10-16T01:06:52.507Z,78.89
2022-10-16T01:10:07.365Z,78.43
2022-10-16T01:13:14.105Z,78.41
2022-10-16T01:16:26.452Z,79.15
2022-10-16T01:19:43.222Z,78.58
2022-10-16T01:22:58.153Z,78.15
2022-10-16T01:26:17.524Z,78.32
2022-10-16T01:29:27.412Z,78.25
2022-10-16T01:32:35.891Z,78.77
2022-10-16T01:35:41.365Z,78.22
2022-10-16T01:38:49.628Z,77.90
2022-10-16T01:42:00.395Z,78.48
2022-10-16T01:45:08.748Z,78.98
2022-10-16T01:48:13.906Z,79.37
2022-10-16T01:51:18.863Z,79.03
2022-10-16T01:54:22.692Z,78.88
2022-10-16T01:57:27.042Z,78.77
2022-10-16T02:00:32.541Z,78.25
2022-10-16T02:03:36.744Z,78.66
2022-10-16T02:06:39.461Z,78.66
2022-10-16T02:09:42.780Z,78.56
2022-10-16T02:12:51.672Z,78.73
2022-10-16T02:15:55.722Z,77.85
2022-10-16T02:18:58.446Z,78.29
2022-10-16T02:22:07.815Z,79.34
2022-10-16T02:25:14.233Z,78.82
2022-10-16T02:28:21.506Z,77.84
2022-10-16T02:31:30.005Z,78.16
2022-10-16T02:34:35.142Z,78.60
2022-10-16T02:37:40.315Z,78.78
2022-10-16T02:40:43.695Z,78.62
2022-10-16T02:43:46.436Z,77.75
2022-10-16T02:46:50.350Z,78.48
2022-10-16T02:49:53.118Z,79.21
2022-10-16T02:52:55.737Z,78.94
2022-10-16T02:55:58.496Z,79.14
2022-10-16T02:59:01.231Z,79.33
2022-10-16T03:02:05.190Z,79.55
2022-10-16T03:05:09.154Z,79.63
2022-10-16T03:08:11.732Z,79.00
2022-10-16T03:11:14.447Z,79.18
2022-10-16T03:14:17.213Z,79.46
2022-10-16T03:17:21.135Z,79.49
2022-10-16T03:20:23.713Z,79.15
2022-10-16T03:23:26.324Z,79.30
2022-10-16T03:26:28.972Z,79.56
2022-10-16T03:29:33.191Z,79.90
2022-10-16T03:32:37.097Z,79.94
2022-10-16T03:35:39.726Z,80.04
2022-10-16T03:38:42.277Z,80.30
2022-10-16T03:41:44.968Z,80.25
2022-10-16T03:44:47.675Z,80.57
2022-10-16T03:47:51.569Z,80.94
2022-10-16T03:50:54.389Z,80.96
2022-10-16T03:53:56.950Z,80.93
2022-10-16T03:56:59.620Z,81.06
2022-10-16T04:00:02.197Z,80.86
2022-10-16T04:03:06.144Z,80.67
2022-10-16T04:06:09.886Z,81.05
2022-10-16T04:09:12.517Z,81.09
2022-10-16T04:12:15.211Z,81.23
2022-10-16T04:15:18.209Z,81.18
2022-10-16T04:18:22.194Z,81.08
2022-10-16T04:21:25.119Z,81.03
2022-10-16T04:24:27.756Z,81.60
2022-10-16T04:27:32.205Z,81.27
2022-10-16T04:30:35.487Z,81.59
2022-10-16T04:33:39.371Z,81.77
2022-10-16T04:36:42.075Z,81.54
2022-10-16T04:39:45.814Z,81.91
2022-10-16T04:42:48.376Z,82.14
2022-10-16T04:45:52.082Z,81.90
2022-10-16T04:48:55.982Z,82.15
2022-10-16T04:51:58.600Z,81.64
2022-10-16T04:55:03.444Z,82.00
2022-10-16T04:58:06.396Z,81.60
2022-10-16T05:01:09.076Z,81.44
2022-10-16T05:04:13.233Z,81.42
2022-10-16T05:07:15.914Z,82.13
2022-10-16T05:10:19.033Z,81.33
2022-10-16T05:13:21.776Z,81.87
2022-10-16T05:16:24.567Z,81.68
2022-10-16T05:19:29.262Z,81.90
2022-10-16T05:22:32.294Z,82.08
2022-10-16T05:25:34.825Z,81.69
2022-10-16T05:28:37.568Z,81.91
2022-10-16T05:31:40.164Z,81.87
2022-10-16T05:34:44.202Z,81.82
2022-10-16T05:37:46.889Z,82.04
2022-10-16T05:40:53.411Z,81.80
2022-10-16T05:43:56.092Z,81.40
2022-10-16T05:46:58.674Z,81.57
2022-10-16T05:50:02.652Z,82.21
2022-10-16T05:53:05.588Z,82.09
2022-10-16T05:56:11.377Z,81.97
2022-10-16T05:59:14.090Z,81.79
2022-10-16T06:02:16.866Z,81.74
2022-10-16T06:05:20.745Z,82.06
2022-10-16T06:08:24.983Z,81.96
2022-10-16T06:11:29.405Z,81.89
2022-10-16T06:14:32.131Z,81.32
2022-10-16T06:17:34.864Z,81.13
2022-10-16T06:20:38.946Z,81.25
2022-10-16T06:23:41.765Z,80.46
2022-10-16T06:26:44.397Z,80.87
2022-10-16T06:29:47.377Z,81.10
2022-10-16T06:32:50.089Z,80.59
2022-10-16T06:35:54.007Z,80.22
2022-10-16T06:38:56.631Z,80.14
2022-10-16T06:45:07.480Z,79.54
2022-10-16T06:48:10.053Z,79.24
2022-10-16T06:51:15.394Z,79.35
2022-10-16T06:54:18.782Z,79.67
2022-10-16T06:57:21.386Z,79.24
2022-10-16T07:03:31.534Z,78.56
2022-10-16T07:06:36.117Z,78.76
2022-10-16T07:09:38.669Z,78.60
2022-10-16T07:12:41.395Z,78.04
2022-10-16T07:15:43.963Z,77.51
2022-10-16T07:18:47.525Z,78.15
2022-10-16T07:21:51.451Z,78.01
2022-10-16T07:24:53.985Z,78.40
2022-10-16T07:27:57.855Z,76.36
2022-10-16T07:31:03.147Z,76.61
2022-10-16T07:34:05.744Z,76.66
2022-10-16T07:37:09.827Z,76.38
2022-10-16T07:40:12.726Z,77.05
2022-10-16T07:43:16.940Z,76.80
2022-10-16T07:46:20.552Z,76.65
2022-10-16T07:49:23.140Z,76.59
2022-10-16T07:52:27.191Z,76.10
2022-10-16T07:55:29.745Z,76.00
2022-10-16T07:58:32.609Z,76.46
2022-10-16T08:01:35.394Z,76.28
2022-10-16T08:04:37.975Z,76.78
2022-10-16T08:07:42.120Z,76.26
2022-10-16T08:10:44.722Z,76.82
2022-10-16T08:13:47.442Z,75.25
2022-10-16T08:16:50.127Z,75.92
2022-10-16T08:19:52.686Z,74.94
2022-10-16T08:22:56.786Z,75.70
2022-10-16T08:26:05.609Z,75.16
2022-10-16T08:29:08.363Z,74.31
2022-10-16T08:32:11.005Z,75.30
2022-10-16T08:35:15.099Z,74.63
2022-10-16T08:38:19.115Z,74.62
2022-10-16T08:41:58.765Z,75.06
2022-10-16T08:45:17.552Z,74.47
2022-10-16T08:48:26.965Z,73.33
2022-10-16T08:51:33.215Z,73.04
2022-10-16T08:54:43.312Z,72.52
2022-10-16T08:57:46.117Z,70.78
2022-10-16T09:00:52.431Z,71.06
2022-10-16T09:04:26.966Z,70.38
2022-10-16T09:07:35.883Z,70.67
2022-10-16T09:10:54.452Z,70.29
2022-10-16T09:14:05.921Z,69.56
2022-10-16T09:17:22.004Z,69.22
2022-10-16T09:20:38.378Z,68.67
2022-10-16T09:23:40.999Z,67.83
2022-10-16T09:26:45.418Z,67.17
2022-10-16T09:29:48.141Z,67.86
2022-10-16T09:32:54.408Z,66.58
2022-10-16T09:36:00.272Z,67.10
2022-10-16T09:39:07.431Z,66.01
2022-10-16T09:42:12.747Z,66.92
2022-10-16T09:45:24.469Z,65.18
2022-10-16T09:48:32.942Z,64.61
2022-10-16T09:51:37.918Z,63.64
2022-10-16T09:54:51.642Z,63.16
2022-10-16T09:57:56.727Z,61.90
2022-10-16T10:00:59.858Z,60.19
2022-10-16T10:04:03.859Z,60.91
2022-10-16T10:07:06.770Z,60.69
2022-10-16T10:10:22.883Z,61.53
2022-10-16T10:13:28.192Z,62.73
2022-10-16T10:16:30.834Z,61.60
2022-10-16T10:19:41.122Z,61.55
2022-10-16T10:22:46.926Z,61.17
2022-10-16T10:25:57.535Z,61.10
2022-10-16T10:29:09.309Z,61.18
2022-10-16T10:32:25.712Z,61.86
2022-10-16T10:35:35.767Z,60.72
2022-10-16T10:38:47.667Z,61.69
2022-10-16T10:42:09.892Z,59.33
2022-10-16T10:45:28.523Z,57.26
2022-10-16T10:48:54.007Z,55.84
2022-10-16T10:52:08.608Z,57.12
2022-10-16T10:55:21.697Z,56.85
2022-10-16T10:58:50.853Z,56.13
2022-10-16T11:01:58.597Z,57.22
2022-10-16T11:05:21.353Z,57.31
2022-10-16T11:08:32.974Z,56.92
2022-10-16T11:11:40.198Z,58.18
2022-10-16T11:14:48.091Z,58.26
2022-10-16T11:17:57.027Z,58.22
2022-10-16T11:21:04.595Z,57.21
2022-10-16T11:24:18.133Z,56.96
2022-10-16T11:27:37.411Z,57.12
2022-10-16T11:30:45.584Z,55.56
2022-10-16T11:33:57.043Z,53.52
2022-10-16T11:37:07.148Z,50.86
2022-10-16T11:40:22.248Z,51.57
2022-10-16T11:43:30.896Z,50.09
2022-10-16T11:46:47.838Z,49.10
2022-10-16T11:50:06.870Z,48.90
2022-10-16T11:53:19.051Z,49.01
2022-10-16T11:56:23.277Z,46.01
2022-10-16T11:59:35.492Z,46.47
2022-10-16T12:02:50.817Z,47.03
2022-10-16T12:06:08.715Z,45.69
2022-10-16T12:09:21.899Z,47.12
2022-10-16T12:12:31.444Z,45.59
2022-10-16T12:19:13.949Z,45.42
2022-10-16T12:22:20.928Z,45.00
2022-10-16T12:25:26.769Z,46.00
2022-10-16T12:28:31.114Z,44.75
2022-10-16T12:31:54.493Z,43.24
2022-10-16T12:34:58.039Z,45.39
2022-10-16T12:38:19.331Z,45.25
2022-10-16T12:41:28.263Z,45.89
2022-10-16T12:44:34.994Z,45.19
2022-10-16T12:47:40.740Z,45.35
2022-10-16T12:50:43.401Z,45.46
2022-10-16T12:53:47.437Z,45.15
2022-10-16T12:57:05.599Z,43.98
2022-10-16T13:00:22.017Z,45.56
2022-10-16T13:03:55.519Z,47.20
2022-10-16T13:07:11.320Z,46.32
2022-10-16T13:10:27.590Z,47.13
2022-10-16T13:13:49.042Z,47.80
2022-10-16T13:17:04.847Z,48.72
2022-10-16T13:20:19.528Z,47.31
2022-10-16T13:23:28.412Z,46.92
2022-10-16T13:26:43.443Z,47.42
2022-10-16T13:29:46.660Z,45.60
2022-10-16T13:36:00.142Z,46.21
2022-10-16T13:39:11.636Z,45.11
2022-10-16T13:42:27.948Z,45.58
2022-10-16T13:45:31.044Z,45.11
2022-10-16T13:48:35.697Z,46.02
2022-10-16T13:51:38.371Z,46.17
2022-10-16T13:54:42.331Z,46.33
2022-10-16T13:57:46.906Z,46.55
2022-10-16T14:00:57.929Z,46.11
2022-10-16T14:04:06.625Z,46.01
2022-10-16T14:07:20.638Z,46.87
2022-10-16T14:10:27.458Z,47.31
2022-10-16T14:13:36.227Z,47.51
2022-10-16T14:16:43.132Z,48.16
2022-10-16T14:19:51.499Z,48.51
2022-10-16T14:23:03.017Z,50.00
2022-10-16T14:26:25.294Z,50.54
2022-10-16T14:29:32.528Z,50.66
2022-10-16T14:32:35.122Z,50.57
2022-10-16T14:35:40.889Z,50.11
2022-10-16T14:38:50.438Z,49.36
2022-10-16T14:41:54.592Z,49.12
2022-10-16T14:44:58.968Z,49.11
2022-10-16T14:48:04.666Z,48.37
2022-10-16T14:51:10.987Z,48.66
2022-10-16T14:54:15.136Z,50.00
2022-10-16T14:57:20.075Z,49.27
2022-10-16T15:00:26.223Z,49.00
2022-10-16T15:03:28.802Z,48.57
2022-10-16T15:06:31.541Z,49.22
2022-10-16T15:09:34.052Z,49.40
2022-10-16T15:12:36.856Z,50.04
2022-10-16T15:15:44.559Z,50.08
2022-10-16T15:18:47.114Z,50.81
2022-10-16T15:21:50.151Z,51.00
2022-10-16T15:24:52.705Z,50.54
2022-10-16T15:27:55.325Z,50.77
2022-10-16T15:30:59.451Z,50.48
2022-10-16T15:34:05.208Z,51.38
2022-10-16T15:37:08.002Z,50.95
2022-10-16T15:40:11.883Z,51.30
2022-10-16T15:43:14.605Z,52.30
2022-10-16T15:46:20.917Z,52.31
2022-10-16T15:49:23.506Z,52.93
2022-10-16T15:52:26.693Z,53.00
2022-10-16T15:55:29.765Z,53.28
2022-10-16T15:58:32.609Z,53.86
2022-10-16T16:01:37.273Z,54.42
2022-10-16T16:04:44.650Z,54.72
2022-10-16T16:07:47.713Z,55.02
2022-10-16T16:10:59.975Z,55.25
2022-10-16T16:14:02.742Z,55.63
2022-10-16T16:17:06.817Z,56.08
2022-10-16T16:20:10.797Z,56.63
2022-10-16T16:23:13.500Z,57.07
2022-10-16T16:26:24.825Z,57.55
2022-10-16T16:29:27.536Z,57.88
2022-10-16T16:32:31.672Z,58.36
2022-10-16T16:35:34.266Z,58.46
2022-10-16T16:38:37.206Z,58.68
2022-10-16T16:41:39.790Z,59.38
2022-10-16T16:44:42.483Z,59.98
2022-10-16T16:47:46.608Z,59.92
2022-10-16T16:50:49.182Z,60.47
2022-10-16T16:53:53.832Z,60.72
2022-10-16T16:56:56.671Z,61.45
2022-10-16T16:59:59.405Z,61.61
2022-10-16T17:03:03.569Z,61.69
2022-10-16T17:06:08.554Z,61.74
2022-10-16T17:09:14.164Z,62.55
2022-10-16T17:12:16.771Z,62.90
2022-10-16T17:15:19.636Z,63.45
2022-10-16T17:18:24.611Z,63.74
2022-10-16T17:21:28.070Z,63.99
2022-10-16T17:24:30.782Z,63.85
2022-10-16T17:27:34.348Z,64.21
2022-10-16T17:30:37.383Z,64.42
2022-10-16T17:33:41.800Z,65.07
2022-10-16T17:36:46.807Z,64.96
2022-10-16T17:39:51.889Z,65.00
2022-10-16T17:42:54.621Z,65.13
2022-10-16T17:45:57.362Z,65.29
2022-10-16T17:49:01.399Z,65.16
2022-10-16T17:52:04.068Z,65.71
2022-10-16T17:55:07.683Z,65.86
2022-10-16T17:58:10.458Z,66.31
2022-10-16T18:01:14.609Z,66.89
2022-10-16T18:04:19.004Z,66.54
2022-10-16T18:07:21.606Z,66.34
2022-10-16T18:10:24.288Z,66.30
2022-10-16T18:13:26.868Z,66.75
2022-10-16T18:16:31.278Z,67.29
2022-10-16T18:19:35.709Z,66.89
2022-10-16T18:22:38.798Z,67.06
2022-10-16T18:25:41.577Z,67.12
2022-10-16T18:28:44.753Z,66.98
2022-10-16T18:31:47.526Z,67.15
2022-10-16T18:34:52.121Z,67.79
2022-10-16T18:37:58.929Z,67.46
2022-10-16T18:41:01.780Z,67.36
2022-10-16T18:44:04.413Z,67.27
2022-10-16T18:47:07.161Z,67.84
2022-10-16T18:50:11.999Z,67.94
2022-10-16T18:53:14.976Z,68.11
2022-10-16T18:56:20.060Z,68.43
2022-10-16T18:59:23.083Z,68.76
2022-10-16T19:02:25.756Z,68.79
2022-10-16T19:05:30.010Z,68.79
2022-10-16T19:08:33.763Z,68.77
2022-10-16T19:11:41.313Z,68.90
2022-10-16T19:14:44.706Z,69.17
2022-10-16T19:17:47.465Z,68.91
2022-10-16T19:20:51.505Z,69.54
2022-10-16T19:23:54.785Z,69.66
2022-10-16T19:26:58.021Z,69.78
2022-10-16T19:30:00.631Z,70.06
2022-10-16T19:33:03.381Z,69.83
2022-10-16T19:36:11.986Z,70.19
2022-10-16T19:39:17.237Z,70.03
2022-10-16T19:42:20.160Z,69.76
2022-10-16T19:45:22.985Z,69.44
2022-10-16T19:48:25.741Z,70.34
2022-10-16T19:51:30.975Z,70.37
2022-10-16T19:54:35.698Z,69.90
2022-10-16T19:57:39.538Z,70.21
2022-10-16T20:00:42.301Z,70.41
2022-10-16T20:03:45.301Z,69.96
2022-10-16T20:06:49.427Z,70.98
2022-10-16T20:09:52.123Z,71.14
2022-10-16T20:12:54.816Z,71.22
2022-10-16T20:15:57.754Z,71.08
2022-10-16T20:19:01.186Z,71.36
2022-10-16T20:22:05.264Z,71.13
2022-10-16T20:25:10.133Z,71.64
2022-10-16T20:28:15.695Z,71.39
2022-10-16T20:31:22.541Z,70.87
2022-10-16T20:34:25.342Z,71.32
2022-10-16T20:37:29.747Z,71.34
2022-10-16T20:40:35.282Z,71.18
2022-10-16T20:43:44.534Z,71.42
2022-10-16T20:46:47.094Z,71.42
2022-10-16T20:49:49.777Z,71.47
2022-10-16T20:52:53.886Z,71.43
2022-10-16T20:55:56.485Z,71.79
2022-10-16T20:58:59.369Z,71.63
2022-10-16T21:02:02.051Z,71.88
2022-10-16T21:05:05.355Z,71.82
2022-10-16T21:08:09.396Z,72.26
2022-10-16T21:11:13.579Z,71.72
2022-10-16T21:14:16.355Z,71.94
2022-10-16T21:17:19.616Z,72.34
2022-10-16T21:20:22.335Z,71.82
2022-10-16T21:23:26.464Z,72.00
2022-10-16T21:26:30.282Z,72.27
2022-10-16T21:29:33.332Z,72.39
2022-10-16T21:32:36.753Z,72.45
2022-10-16T21:35:39.467Z,72.77
2022-10-16T21:38:43.655Z,72.98
2022-10-16T21:41:47.915Z,72.35
2022-10-16T21:44:50.629Z,72.54
2022-10-16T21:47:53.207Z,72.39
2022-10-16T21:50:55.931Z,72.73
2022-10-16T21:54:00.177Z,72.57
2022-10-16T22:00:11.395Z,72.67
2022-10-16T22:03:14.002Z,72.53
2022-10-16T22:06:18.656Z,72.69
2022-10-16T22:09:22.867Z,72.55
2022-10-16T22:12:25.620Z,72.55
2022-10-16T22:15:28.430Z,73.10
2022-10-16T22:18:31.823Z,73.31
2022-10-16T22:21:35.760Z,73.06
2022-10-16T22:24:42.681Z,73.58
2022-10-16T22:27:45.297Z,73.88
2022-10-16T22:30:48.078Z,73.96
2022-10-16T22:33:55.370Z,73.82
2022-10-16T22:36:58.041Z,73.77
2022-10-16T22:40:02.094Z,73.41
2022-10-16T22:43:07.012Z,73.77
2022-10-16T22:46:11.918Z,74.08
2022-10-16T22:49:16.606Z,73.78
2022-10-16T22:52:19.337Z,73.39
2022-10-16T22:55:23.899Z,73.64
2022-10-16T22:58:26.667Z,73.51
2022-10-16T23:01:33.247Z,74.00
2022-10-16T23:04:35.881Z,73.77
2022-10-16T23:07:39.142Z,74.23
2022-10-16T23:10:45.003Z,74.03
2022-10-16T23:13:47.909Z,74.02
2022-10-16T23:16:51.123Z,74.01
2022-10-16T23:19:53.865Z,74.26
2022-10-16T23:22:56.616Z,73.96
2022-10-16T23:26:00.682Z,74.38
2022-10-16T23:29:03.454Z,73.69
2022-10-16T23:32:06.370Z,73.80
2022-10-16T23:35:09.746Z,73.90
2022-10-16T23:38:12.420Z,73.71
2022-10-16T23:41:17.712Z,74.12
2022-10-16T23:44:20.255Z,74.08
2022-10-16T23:47:23.006Z,73.86
2022-10-16T23:50:25.629Z,74.32
2022-10-16T23:53:28.367Z,74.46
2022-10-16T23:56:32.571Z,74.28
2022-10-16T23:59:35.182Z,74.60
